sensor_id;sensor_type;location;lat;lon;timestamp;pressure;altitude;pressure_sealevel;temperature;humidity
1401;BME280;46518;48.842;8.926;2022-12-18T11:30:37;98262.72;;;-2.32;77.18
1401;BME280;46518;48.842;8.926;2022-12-18T11:33:30;98240.84;;;-2.47;77.50
1401;BME280;46518;48.842;8.926;2022-12-18T11:36:45;98249.16;;;-2.34;78.05
1401;BME280;46518;48.842;8.926;2022-12-18T11:39:34;98249.16;;;-2.24;77.68
1401;BME280;46518;48.842;8.926;2022-12-18T11:42:38;98227.97;;;-2.28;78.12
1401;BME280;46518;48.842;8.926;2022-12-18T19:26:10;98062.16;;;-1.00;78.64
1401;BME280;46518;48.842;8.926;2022-12-18T19:29:07;98091.88;;;-0.78;77.61
1401;BME280;46518;48.842;8.926;2022-12-18T19:32:14;98083.63;;;-0.81;77.16
1401;BME280;46518;48.842;8.926;2022-12-18T19:35:09;98086.44;;;-0.75;78.06
1401;BME280;46518;48.842;8.926;2022-12-18T19:38:12;98052.31;;;-0.96;77.86
1401;BME280;46518;48.842;8.926;2022-12-18T19:41:31;98050.59;;;-0.88;78.32
1401;BME280;46518;48.842;8.926;2022-12-18T19:44:35;98073.25;;;-0.63;77.96
1401;BME280;46518;48.842;8.926;2022-12-18T19:47:34;98050.28;;;-0.67;77.58
1401;BME280;46518;48.842;8.926;2022-12-18T19:50:14;98060.22;;;-0.54;77.35
1401;BME280;46518;48.842;8.926;2022-12-18T19:53:14;98057.56;;;-0.44;76.38
1401;BME280;46518;48.842;8.926;2022-12-18T19:55:54;98059.47;;;-0.46;76.47
1401;BME280;46518;48.842;8.926;2022-12-18T19:58:45;98036.75;;;-0.60;76.33
1401;BME280;46518;48.842;8.926;2022-12-18T20:01:36;98033.97;;;-0.67;76.57
1401;BME280;46518;48.842;8.926;2022-12-18T20:04:15;98029.56;;;-0.75;77.04
1401;BME280;46518;48.842;8.926;2022-12-18T20:06:57;98041.72;;;-0.67;78.03
1401;BME280;46518;48.842;8.926;2022-12-18T20:09:41;98041.88;;;-0.43;77.49
1401;BME280;46518;48.842;8.926;2022-12-18T20:12:43;98050.72;;;-0.27;77.07
1401;BME280;46518;48.842;8.926;2022-12-18T20:15:58;98022.47;;;-0.47;76.75
1401;BME280;46518;48.842;8.926;2022-12-18T20:18:47;98032.19;;;-0.40;77.02
1401;BME280;46518;48.842;8.926;2022-12-18T20:21:37;98003.75;;;-0.40;77.18
1401;BME280;46518;48.842;8.926;2022-12-18T20:24:29;98024.50;;;-0.32;76.38
1401;BME280;46518;48.842;8.926;2022-12-18T20:27:20;98019.66;;;-0.53;76.83
1401;BME280;46518;48.842;8.926;2022-12-18T20:30:26;98017.34;;;-0.38;76.89
1401;BME280;46518;48.842;8.926;2022-12-18T20:33:11;98023.38;;;-0.30;76.69
1401;BME280;46518;48.842;8.926;2022-12-18T20:35:51;98013.84;;;-0.29;76.63
1401;BME280;46518;48.842;8.926;2022-12-18T20:38:42;98038.47;;;-0.17;76.77
1401;BME280;46518;48.842;8.926;2022-12-18T20:41:31;98037.59;;;-0.26;76.92
1401;BME280;46518;48.842;8.926;2022-12-18T20:44:15;98011.94;;;-0.19;75.39
1401;BME280;46518;48.842;8.926;2022-12-18T20:46:58;98016.81;;;-0.16;75.75
1401;BME280;46518;48.842;8.926;2022-12-18T20:50:06;98010.38;;;-0.12;75.71
1401;BME280;46518;48.842;8.926;2022-12-18T20:53:02;98009.25;;;-0.09;76.52
1401;BME280;46518;48.842;8.926;2022-12-18T20:55:56;98011.59;;;0.10;75.95
1401;BME280;46518;48.842;8.926;2022-12-18T20:58:56;98034.13;;;0.26;74.91
1401;BME280;46518;48.842;8.926;2022-12-18T21:02:02;98020.88;;;-0.05;75.70
1401;BME280;46518;48.842;8.926;2022-12-18T21:05:17;98035.34;;;0.06;75.93
1401;BME280;46518;48.842;8.926;2022-12-18T21:08:09;98015.06;;;-0.07;76.78
1401;BME280;46518;48.842;8.926;2022-12-18T21:10:54;98028.88;;;0.10;76.59
1401;BME280;46518;48.842;8.926;2022-12-18T21:13:35;98030.22;;;0.22;76.59
1401;BME280;46518;48.842;8.926;2022-12-18T21:16:24;98027.34;;;0.33;76.33
1401;BME280;46518;48.842;8.926;2022-12-18T21:19:27;98018.72;;;0.25;75.85
1401;BME280;46518;48.842;8.926;2022-12-18T21:22:26;98025.41;;;0.35;76.08
1401;BME280;46518;48.842;8.926;2022-12-18T21:25:08;98020.19;;;0.27;75.95
1401;BME280;46518;48.842;8.926;2022-12-18T21:28:05;98038.97;;;0.29;75.61
1401;BME280;46518;48.842;8.926;2022-12-18T21:31:11;98029.84;;;0.09;76.00
1401;BME280;46518;48.842;8.926;2022-12-18T21:34:14;98011.84;;;-0.01;76.76
1401;BME280;46518;48.842;8.926;2022-12-18T21:37:05;98034.44;;;0.23;76.41
1401;BME280;46518;48.842;8.926;2022-12-18T21:47:09;98017.59;;;0.19;76.94
1401;BME280;46518;48.842;8.926;2022-12-18T21:49:52;98018.31;;;0.46;76.36
1401;BME280;46518;48.842;8.926;2022-12-18T21:52:48;98021.72;;;0.54;76.05
1401;BME280;46518;48.842;8.926;2022-12-18T21:55:47;98027.41;;;0.66;75.88
1401;BME280;46518;48.842;8.926;2022-12-18T21:58:49;98010.94;;;0.75;75.77
1401;BME280;46518;48.842;8.926;2022-12-18T22:01:27;98005.41;;;0.78;75.81
1401;BME280;46518;48.842;8.926;2022-12-18T22:04:24;98009.66;;;0.88;75.45
1401;BME280;46518;48.842;8.926;2022-12-18T22:07:13;98004.63;;;0.78;75.10
1401;BME280;46518;48.842;8.926;2022-12-18T22:10:10;98001.69;;;0.81;75.87
1401;BME280;46518;48.842;8.926;2022-12-18T22:13:10;97985.97;;;0.74;75.63
1401;BME280;46518;48.842;8.926;2022-12-18T22:15:58;98011.91;;;0.91;75.74
1401;BME280;46518;48.842;8.926;2022-12-18T22:19:22;98003.47;;;0.80;75.79
1401;BME280;46518;48.842;8.926;2022-12-18T22:22:24;98015.97;;;0.93;75.46
1401;BME280;46518;48.842;8.926;2022-12-18T22:25:28;98001.22;;;0.94;75.24
1401;BME280;46518;48.842;8.926;2022-12-18T22:28:31;98011.28;;;1.05;74.74
1401;BME280;46518;48.842;8.926;2022-12-18T22:31:26;97996.50;;;0.97;75.43
1401;BME280;46518;48.842;8.926;2022-12-18T22:34:43;97983.72;;;0.88;75.37
1401;BME280;46518;48.842;8.926;2022-12-18T22:37:41;98005.44;;;1.03;75.08
1401;BME280;46518;48.842;8.926;2022-12-18T22:40:39;98016.44;;;0.97;75.28
1401;BME280;46518;48.842;8.926;2022-12-18T22:43:30;98004.75;;;0.84;75.68
1401;BME280;46518;48.842;8.926;2022-12-18T22:46:32;97997.47;;;0.55;75.64
1401;BME280;46518;48.842;8.926;2022-12-18T22:50:02;97998.94;;;0.74;75.39
1401;BME280;46518;48.842;8.926;2022-12-18T22:52:58;98029.91;;;1.00;75.63
1401;BME280;46518;48.842;8.926;2022-12-18T22:56:01;98024.06;;;0.90;75.02
1401;BME280;46518;48.842;8.926;2022-12-18T22:59:10;98016.44;;;0.89;75.60
1401;BME280;46518;48.842;8.926;2022-12-18T23:02:06;98012.56;;;0.93;75.52
1401;BME280;46518;48.842;8.926;2022-12-18T23:05:32;98003.16;;;0.92;75.82
1401;BME280;46518;48.842;8.926;2022-12-18T23:08:34;98031.16;;;1.04;75.94
1401;BME280;46518;48.842;8.926;2022-12-18T23:11:15;98027.94;;;0.94;76.03
1401;BME280;46518;48.842;8.926;2022-12-18T23:14:10;98020.16;;;0.78;76.50
1401;BME280;46518;48.842;8.926;2022-12-18T23:17:36;98008.34;;;0.83;75.75
